AXM722A WMKP-WMKA
Flight info
| Callsign | AXM722A |
|---|---|
| Flight time | 0h 15m |
| Altitude | 9000 |
| Route | LUNTU DCT OMBUL |
| Aircraft | A320/M-SDE3FGHIRWY/LB1 |
Departure
| Time | 2026-04-18 10:25 |
|---|---|
| Airport | Penang International Airport (WMKP) |
Arrival
| Time | 2026-04-18 10:41 |
|---|---|
| Airport | Sultan Abdul Halim Airport (WMKA) |
| Time | Latitude | Longitude | Altitude | Speed | Heading |
|---|---|---|---|---|---|
| 2026-04-18 09:46 | 5.29224 | 100.26645 | 23 ft | 0 kts | 311° |
| 2026-04-18 10:17 | 5.29223 | 100.26646 | 23 ft | 2 kts | 311° |
| 2026-04-18 10:17 | 5.29207 | 100.26666 | 23 ft | 4 kts | 306° |
| 2026-04-18 10:17 | 5.29192 | 100.26689 | 23 ft | 4 kts | 295° |
| 2026-04-18 10:17 | 5.29184 | 100.26713 | 23 ft | 4 kts | 265° |
| 2026-04-18 10:18 | 5.29190 | 100.26729 | 24 ft | 1 kts | 220° |
| 2026-04-18 10:18 | 5.29193 | 100.26732 | 23 ft | 0 kts | 220° |
| 2026-04-18 10:21 | 5.29192 | 100.26731 | 23 ft | 2 kts | 220° |
| 2026-04-18 10:21 | 5.29134 | 100.26680 | 23 ft | 14 kts | 221° |
| 2026-04-18 10:21 | 5.29068 | 100.26621 | 23 ft | 13 kts | 221° |
| 2026-04-18 10:21 | 5.28989 | 100.26602 | 23 ft | 12 kts | 153° |
| 2026-04-18 10:22 | 5.28934 | 100.26654 | 25 ft | 10 kts | 135° |
| 2026-04-18 10:22 | 5.28875 | 100.26658 | 25 ft | 8 kts | 211° |
| 2026-04-18 10:22 | 5.28828 | 100.26622 | 24 ft | 12 kts | 221° |
| 2026-04-18 10:22 | 5.28760 | 100.26576 | 23 ft | 11 kts | 199° |
| 2026-04-18 10:23 | 5.28689 | 100.26589 | 25 ft | 12 kts | 141° |
| 2026-04-18 10:23 | 5.28675 | 100.26604 | 23 ft | 0 kts | 133° |
| 2026-04-18 10:23 | 5.28646 | 100.26641 | 25 ft | 15 kts | 123° |
| 2026-04-18 10:24 | 5.28629 | 100.26693 | 23 ft | 6 kts | 79° |
| 2026-04-18 10:24 | 5.28646 | 100.26715 | 23 ft | 3 kts | 47° |
| 2026-04-18 10:24 | 5.28651 | 100.26719 | 24 ft | 0 kts | 44° |
| 2026-04-18 10:25 | 5.28752 | 100.26810 | 25 ft | 56 kts | 42° |
| 2026-04-18 10:25 | 5.29222 | 100.27238 | 25 ft | 122 kts | 42° |
| 2026-04-18 10:25 | 5.29980 | 100.27927 | 30 ft | 170 kts | 43° |
| 2026-04-18 10:25 | 5.30825 | 100.28727 | 785 ft | 159 kts | 45° |
| 2026-04-18 10:26 | 5.31659 | 100.29474 | 1456 ft | 163 kts | 43° |
| 2026-04-18 10:26 | 5.32557 | 100.30263 | 1807 ft | 182 kts | 43° |
| 2026-04-18 10:26 | 5.33571 | 100.31154 | 2106 ft | 204 kts | 43° |
| 2026-04-18 10:26 | 5.34700 | 100.32145 | 2364 ft | 224 kts | 41° |
| 2026-04-18 10:27 | 5.35924 | 100.33230 | 2676 ft | 247 kts | 41° |
| 2026-04-18 10:27 | 5.37280 | 100.34429 | 3108 ft | 269 kts | 40° |
| 2026-04-18 10:27 | 5.38883 | 100.35409 | 3844 ft | 274 kts | 18° |
| 2026-04-18 10:27 | 5.40762 | 100.35687 | 4680 ft | 276 kts | 355° |
| 2026-04-18 10:28 | 5.42612 | 100.35225 | 5532 ft | 274 kts | 338° |
| 2026-04-18 10:28 | 5.44400 | 100.34524 | 6403 ft | 277 kts | 338° |
| 2026-04-18 10:28 | 5.46203 | 100.33806 | 6931 ft | 281 kts | 339° |
| 2026-04-18 10:28 | 5.48028 | 100.33082 | 7743 ft | 284 kts | 340° |
| 2026-04-18 10:29 | 5.49882 | 100.32347 | 8492 ft | 289 kts | 340° |
| 2026-04-18 10:29 | 5.51773 | 100.31597 | 8884 ft | 294 kts | 340° |
| 2026-04-18 10:29 | 5.53674 | 100.30846 | 8986 ft | 293 kts | 341° |
| 2026-04-18 10:29 | 5.55644 | 100.30372 | 9006 ft | 291 kts | 356° |
| 2026-04-18 10:30 | 5.57650 | 100.30438 | 9019 ft | 288 kts | 10° |
| 2026-04-18 10:30 | 5.59634 | 100.30747 | 9010 ft | 289 kts | 10° |
| 2026-04-18 10:30 | 5.61619 | 100.31054 | 9006 ft | 289 kts | 10° |
| 2026-04-18 10:30 | 5.63602 | 100.31358 | 9018 ft | 288 kts | 10° |
| 2026-04-18 10:31 | 5.65584 | 100.31661 | 9003 ft | 288 kts | 10° |
| 2026-04-18 10:31 | 5.67566 | 100.31960 | 9008 ft | 288 kts | 10° |
| 2026-04-18 10:31 | 5.69549 | 100.32257 | 9004 ft | 288 kts | 10° |
| 2026-04-18 10:31 | 5.71532 | 100.32559 | 9004 ft | 288 kts | 10° |
| 2026-04-18 10:32 | 5.73515 | 100.32868 | 9004 ft | 288 kts | 10° |
| 2026-04-18 10:32 | 5.75504 | 100.33124 | 9019 ft | 289 kts | 3° |
| 2026-04-18 10:32 | 5.77504 | 100.32892 | 9013 ft | 292 kts | 346° |
| 2026-04-18 10:32 | 5.79365 | 100.32074 | 9022 ft | 295 kts | 330° |
| 2026-04-18 10:33 | 5.81098 | 100.30963 | 8986 ft | 298 kts | 330° |
| 2026-04-18 10:33 | 5.82835 | 100.29851 | 8860 ft | 295 kts | 329° |
| 2026-04-18 10:33 | 5.84561 | 100.28741 | 8732 ft | 295 kts | 330° |
| 2026-04-18 10:33 | 5.86291 | 100.27639 | 8335 ft | 295 kts | 330° |
| 2026-04-18 10:34 | 5.88030 | 100.26532 | 7917 ft | 294 kts | 330° |
| 2026-04-18 10:34 | 5.89748 | 100.25436 | 7523 ft | 292 kts | 330° |
| 2026-04-18 10:34 | 5.91449 | 100.24349 | 6962 ft | 288 kts | 329° |
| 2026-04-18 10:34 | 5.93135 | 100.23272 | 6289 ft | 285 kts | 329° |
| 2026-04-18 10:35 | 5.94799 | 100.22212 | 5615 ft | 281 kts | 331° |
| 2026-04-18 10:35 | 5.96586 | 100.21518 | 4934 ft | 274 kts | 353° |
| 2026-04-18 10:35 | 5.98458 | 100.21640 | 4238 ft | 272 kts | 18° |
| 2026-04-18 10:35 | 6.00095 | 100.22552 | 3543 ft | 271 kts | 40° |
| 2026-04-18 10:36 | 6.01458 | 100.23804 | 3169 ft | 256 kts | 42° |
| 2026-04-18 10:36 | 6.02726 | 100.24974 | 3037 ft | 242 kts | 41° |
| 2026-04-18 10:36 | 6.03946 | 100.26090 | 2917 ft | 232 kts | 41° |
| 2026-04-18 10:36 | 6.04725 | 100.26802 | 2845 ft | 226 kts | 41° |
| 2026-04-18 10:37 | 6.06233 | 100.28181 | 2734 ft | 211 kts | 40° |
| 2026-04-18 10:37 | 6.06928 | 100.28815 | 2664 ft | 196 kts | 41° |
| 2026-04-18 10:37 | 6.07871 | 100.29679 | 2611 ft | 170 kts | 40° |
| 2026-04-18 10:37 | 6.08969 | 100.30683 | 2392 ft | 155 kts | 40° |
| 2026-04-18 10:38 | 6.09501 | 100.31169 | 2270 ft | 151 kts | 40° |
| 2026-04-18 10:38 | 6.10274 | 100.31874 | 2078 ft | 149 kts | 39° |
| 2026-04-18 10:38 | 6.11032 | 100.32568 | 1886 ft | 147 kts | 39° |
| 2026-04-18 10:38 | 6.11782 | 100.33254 | 1695 ft | 145 kts | 39° |
| 2026-04-18 10:39 | 6.12524 | 100.33933 | 1501 ft | 144 kts | 39° |
| 2026-04-18 10:39 | 6.13256 | 100.34603 | 1311 ft | 142 kts | 39° |
| 2026-04-18 10:39 | 6.13983 | 100.35268 | 1125 ft | 141 kts | 39° |
| 2026-04-18 10:39 | 6.14707 | 100.35931 | 939 ft | 140 kts | 39° |
| 2026-04-18 10:40 | 6.15429 | 100.36592 | 748 ft | 141 kts | 40° |
| 2026-04-18 10:40 | 6.16151 | 100.37251 | 564 ft | 140 kts | 39° |
| 2026-04-18 10:40 | 6.16869 | 100.37909 | 385 ft | 139 kts | 41° |
| 2026-04-18 10:40 | 6.17584 | 100.38563 | 194 ft | 140 kts | 40° |
| 2026-04-18 10:41 | 6.18299 | 100.39216 | 28 ft | 133 kts | 43° |
| 2026-04-18 10:41 | 6.18885 | 100.39758 | 22 ft | 86 kts | 42° |
| 2026-04-18 10:41 | 6.19105 | 100.39956 | 22 ft | 1 kts | 42° |
| 2026-04-18 10:41 | 6.19118 | 100.39971 | 22 ft | 2 kts | 45° |
| 2026-04-18 10:42 | 6.19124 | 100.39950 | 22 ft | 2 kts | 241° |
| 2026-04-18 10:42 | 6.19070 | 100.39917 | 22 ft | 15 kts | 208° |
| 2026-04-18 10:42 | 6.19037 | 100.39846 | 23 ft | 11 kts | 299° |
| 2026-04-18 10:42 | 6.19093 | 100.39778 | 21 ft | 14 kts | 310° |
| 2026-04-18 10:43 | 6.19158 | 100.39714 | 22 ft | 9 kts | 312° |
| 2026-04-18 10:43 | 6.19160 | 100.39659 | 20 ft | 7 kts | 274° |
| 2026-04-18 10:43 | 6.19160 | 100.39645 | 20 ft | 0 kts | 269° |